Time;durP1;ratioP1;P1;durP2;ratioP2;P2;SDS_P1;SDS_P2;PMS_P1;PMS_P2;Temp;Humidity;BMP_temperature;BMP_pressure;BME280_temperature;BME280_humidity;BME280_pressure;Samples;Min_cycle;Max_cycle;Signal;HPM_P1;HPM_P2
2022/05/26 00:01:17;;;;;;;;;;;13.90;99.90;;;;;;5004344;28;19931;-64
2022/05/26 00:03:45;;;;;;;;;;;13.90;99.90;;;;;;4993075;28;19930;-69
2022/05/26 00:06:12;;;;;;;;;;;13.90;99.90;;;;;;5007431;28;19926;-64
2022/05/26 00:08:39;;;;;;;;;;;13.90;99.90;;;;;;5004501;28;19935;-65
2022/05/26 00:11:08;;;;;;;;;;;13.80;99.90;;;;;;4998552;28;19936;-64
2022/05/26 00:13:36;;;;;;;;;;;13.70;99.90;;;;;;5003587;28;20400;-64
2022/05/26 00:16:03;;;;;;;;;;;13.60;99.90;;;;;;5007931;28;19936;-63
2022/05/26 00:18:29;;;;;;;;;;;13.60;99.90;;;;;;5005657;28;19925;-63
2022/05/26 00:20:56;;;;;;;;;;;13.50;99.90;;;;;;5002417;28;19972;-64
2022/05/26 00:23:25;;;;;;;;;;;13.50;99.90;;;;;;5010169;28;19926;-63
2022/05/26 00:25:51;;;;;;;;;;;13.50;99.90;;;;;;5007234;28;19925;-63
2022/05/26 00:28:18;;;;;;;;;;;13.40;99.90;;;;;;5005585;28;19933;-64
2022/05/26 00:30:45;;;;;;;;;;;13.30;99.90;;;;;;5003842;28;20020;-63
2022/05/26 00:33:13;;;;;;;;;;;13.30;99.90;;;;;;5006518;28;20316;-64
2022/05/26 00:35:40;;;;;;;;;;;13.20;99.90;;;;;;5002503;28;19932;-64
2022/05/26 00:38:09;;;;;;;;;;;13.10;99.90;;;;;;5010481;28;20403;-63
2022/05/26 00:40:36;;;;;;;;;;;13.20;99.90;;;;;;5007952;28;20015;-63
2022/05/26 00:43:04;;;;;;;;;;;13.20;99.90;;;;;;5001301;28;20020;-64
2022/05/26 00:45:34;;;;;;;;;;;13.20;99.90;;;;;;5004424;28;19940;-63
2022/05/26 00:48:00;;;;;;;;;;;13.20;99.90;;;;;;5002236;28;20601;-63
2022/05/26 00:50:29;;;;;;;;;;;13.20;99.90;;;;;;4998760;28;19932;-63
2022/05/26 00:52:56;;;;;;;;;;;13.10;99.90;;;;;;4998641;28;20431;-63
2022/05/26 00:55:31;;;;;;;;;;;13.10;99.90;;;;;;5000460;28;19925;-63
2022/05/26 00:57:59;;;;;;;;;;;13.10;99.90;;;;;;4999910;28;19969;-63
2022/05/26 01:00:31;;;;;;;;;;;13.10;99.90;;;;;;5008248;28;19944;-63
2022/05/26 01:03:01;;;;;;;;;;;13.10;99.90;;;;;;5007646;28;19926;-63
2022/05/26 01:05:31;;;;;;;;;;;13.20;99.90;;;;;;4997839;28;19975;-63
2022/05/26 01:07:58;;;;;;;;;;;13.20;99.90;;;;;;5000077;28;19940;-63
2022/05/26 01:10:25;;;;;;;;;;;13.20;99.90;;;;;;5004067;28;19969;-63
2022/05/26 01:12:52;;;;;;;;;;;13.20;99.90;;;;;;5004540;28;20016;-63
2022/05/26 01:15:19;;;;;;;;;;;13.30;99.90;;;;;;5001677;28;19925;-63
2022/05/26 01:17:55;;;;;;;;;;;13.30;99.90;;;;;;5008639;28;20384;-64
2022/05/26 01:20:39;;;;;;;;;;;13.20;99.90;;;;;;5002528;28;19926;-63
2022/05/26 01:23:15;;;;;;;;;;;13.20;99.90;;;;;;5005188;28;19932;-63
2022/05/26 01:25:42;;;;;;;;;;;13.10;99.90;;;;;;4998346;28;19929;-63
2022/05/26 01:28:19;;;;;;;;;;;13.10;99.90;;;;;;5003189;28;19926;-64
2022/05/26 01:30:54;;;;;;;;;;;13.10;99.90;;;;;;5007430;28;19929;-64
2022/05/26 01:33:26;;;;;;;;;;;13.00;99.90;;;;;;5014420;28;19925;-64
2022/05/26 01:36:07;;;;;;;;;;;13.00;99.90;;;;;;5008898;28;19925;-63
2022/05/26 01:38:52;;;;;;;;;;;13.00;99.90;;;;;;5012034;28;19933;-64
2022/05/26 01:41:28;;;;;;;;;;;13.00;99.90;;;;;;5040416;28;19965;-63
2022/05/26 01:43:54;;;;;;;;;;;13.00;99.90;;;;;;5015563;28;19926;-63
2022/05/26 01:46:22;;;;;;;;;;;13.00;99.90;;;;;;5006302;28;19925;-63
2022/05/26 01:48:58;;;;;;;;;;;13.10;99.90;;;;;;5011607;28;19925;-64
2022/05/26 01:51:27;;;;;;;;;;;13.10;99.90;;;;;;5015920;28;19932;-63
2022/05/26 01:54:20;;;;;;;;;;;13.10;99.90;;;;;;5010154;28;19925;-64
2022/05/26 01:56:52;;;;;;;;;;;13.10;99.90;;;;;;5000867;28;20384;-63
2022/05/26 01:59:23;;;;;;;;;;;13.00;99.90;;;;;;5011122;28;20451;-64
2022/05/26 02:02:02;;;;;;;;;;;13.00;99.90;;;;;;5005132;28;20573;-63
2022/05/26 02:04:33;;;;;;;;;;;12.90;99.90;;;;;;5010485;28;20016;-64
2022/05/26 02:07:03;;;;;;;;;;;12.90;99.90;;;;;;5002715;28;19932;-64
2022/05/26 02:09:38;;;;;;;;;;;12.90;99.90;;;;;;5002662;28;19933;-63
2022/05/26 02:12:07;;;;;;;;;;;12.80;99.90;;;;;;5006078;28;19925;-63
2022/05/26 02:14:54;;;;;;;;;;;12.80;99.90;;;;;;5005242;28;20464;-63
2022/05/26 02:17:29;;;;;;;;;;;12.70;99.90;;;;;;4998564;28;19925;-63
2022/05/26 02:20:07;;;;;;;;;;;12.60;99.90;;;;;;5007115;28;19948;-63
2022/05/26 02:22:39;;;;;;;;;;;12.60;99.90;;;;;;5004073;28;20040;-64
2022/05/26 02:25:14;;;;;;;;;;;12.60;99.90;;;;;;5007611;28;20378;-64
2022/05/26 02:27:40;;;;;;;;;;;12.70;99.90;;;;;;5003733;28;20413;-64
2022/05/26 02:30:08;;;;;;;;;;;12.70;99.90;;;;;;5005455;28;20439;-63
2022/05/26 02:32:35;;;;;;;;;;;12.70;99.90;;;;;;5010253;28;19925;-64
2022/05/26 02:35:22;;;;;;;;;;;12.60;99.90;;;;;;5010743;28;20013;-64
2022/05/26 02:37:50;;;;;;;;;;;12.60;99.90;;;;;;5001996;28;20012;-64
2022/05/26 02:40:17;;;;;;;;;;;12.70;99.90;;;;;;5011018;28;20618;-64
2022/05/26 02:42:49;;;;;;;;;;;12.80;99.90;;;;;;5005247;28;19925;-63
2022/05/26 02:45:20;;;;;;;;;;;12.90;99.90;;;;;;5003195;28;19925;-63
2022/05/26 02:47:56;;;;;;;;;;;13.00;99.90;;;;;;5000304;28;19930;-64
2022/05/26 02:50:42;;;;;;;;;;;13.00;99.90;;;;;;5008374;28;19991;-64
2022/05/26 02:53:08;;;;;;;;;;;13.10;99.90;;;;;;5000999;28;20016;-63
2022/05/26 02:55:53;;;;;;;;;;;13.00;99.90;;;;;;5004027;28;20374;-64
2022/05/26 02:58:38;;;;;;;;;;;12.90;99.90;;;;;;5008967;28;19956;-64
2022/05/26 03:01:17;;;;;;;;;;;12.80;99.90;;;;;;5036559;28;20644;-63
2022/05/26 03:04:10;;;;;;;;;;;12.70;99.90;;;;;;5003998;28;20403;-63
2022/05/26 03:06:40;;;;;;;;;;;12.60;99.90;;;;;;5004747;28;20271;-63
2022/05/26 03:09:08;;;;;;;;;;;12.50;99.90;;;;;;5003873;28;19929;-63
2022/05/26 03:11:51;;;;;;;;;;;12.30;99.90;;;;;;5010631;28;20016;-63
2022/05/26 03:14:19;;;;;;;;;;;12.30;99.90;;;;;;5001137;28;19930;-63
2022/05/26 03:16:46;;;;;;;;;;;12.20;99.90;;;;;;5003558;28;19930;-63
2022/05/26 03:19:13;;;;;;;;;;;12.00;99.90;;;;;;5006429;28;19934;-63
2022/05/26 03:21:40;;;;;;;;;;;11.90;99.90;;;;;;5006012;28;19932;-64
2022/05/26 03:24:09;;;;;;;;;;;11.90;99.90;;;;;;5009708;28;19932;-63
2022/05/26 03:26:35;;;;;;;;;;;11.80;99.90;;;;;;5009733;28;20016;-63
2022/05/26 03:29:03;;;;;;;;;;;11.80;99.90;;;;;;5004309;28;19932;-63
2022/05/26 03:31:30;;;;;;;;;;;11.70;99.90;;;;;;5007521;28;19932;-63
2022/05/26 03:42:17;;;;;;;;;;;11.50;99.90;;;;;;5007084;28;20731;-63
2022/05/26 03:44:44;;;;;;;;;;;11.40;99.90;;;;;;5005384;28;19976;-63
2022/05/26 03:47:13;;;;;;;;;;;11.40;99.90;;;;;;5004320;28;19925;-63
2022/05/26 03:49:42;;;;;;;;;;;11.40;99.90;;;;;;5004142;28;20016;-63
2022/05/26 03:52:12;;;;;;;;;;;11.30;99.90;;;;;;5003431;28;19925;-63
2022/05/26 03:54:39;;;;;;;;;;;11.30;99.90;;;;;;4999225;28;19964;-63
2022/05/26 03:57:06;;;;;;;;;;;11.20;99.90;;;;;;5002026;28;19932;-63
2022/05/26 03:59:34;;;;;;;;;;;11.10;99.90;;;;;;5004714;28;19938;-63
2022/05/26 04:02:01;;;;;;;;;;;11.00;99.90;;;;;;5005422;28;19926;-63
2022/05/26 04:04:28;;;;;;;;;;;11.00;99.90;;;;;;5008883;28;19933;-63
2022/05/26 04:06:57;;;;;;;;;;;11.10;99.90;;;;;;5010343;28;19926;-63
2022/05/26 04:09:23;;;;;;;;;;;11.30;99.90;;;;;;5009315;28;19972;-63
2022/05/26 04:11:53;;;;;;;;;;;11.30;99.90;;;;;;4996626;28;19925;-63
2022/05/26 04:14:20;;;;;;;;;;;11.30;99.90;;;;;;5007747;28;19940;-63
2022/05/26 04:16:46;;;;;;;;;;;11.30;99.90;;;;;;5009273;28;19972;-64
2022/05/26 04:19:16;;;;;;;;;;;11.40;99.90;;;;;;5007367;28;20003;-64
2022/05/26 04:24:28;;;;;;;;;;;11.60;99.90;;;;;;5006464;28;19960;-64
2022/05/26 04:26:54;;;;;;;;;;;11.80;99.90;;;;;;4998612;28;19926;-64
2022/05/26 04:29:23;;;;;;;;;;;12.00;99.90;;;;;;5000811;28;20357;-64
2022/05/26 04:31:50;;;;;;;;;;;12.30;99.90;;;;;;4997858;28;19933;-64
2022/05/26 04:34:17;;;;;;;;;;;12.60;99.90;;;;;;5004120;28;20020;-63
2022/05/26 04:36:44;;;;;;;;;;;12.80;99.90;;;;;;4996578;28;20446;-64
2022/05/26 04:39:11;;;;;;;;;;;13.60;99.90;;;;;;5009056;28;19930;-64
2022/05/26 04:41:38;;;;;;;;;;;14.70;99.90;;;;;;4998834;28;19926;-64
2022/05/26 04:44:06;;;;;;;;;;;15.70;99.90;;;;;;5007472;28;19925;-63
2022/05/26 04:46:33;;;;;;;;;;;16.50;99.90;;;;;;5006015;28;19964;-61
2022/05/26 04:48:59;;;;;;;;;;;17.40;99.90;;;;;;5003909;28;19926;-62
2022/05/26 04:51:26;;;;;;;;;;;17.20;99.90;;;;;;5012139;28;19929;-63
2022/05/26 04:53:54;;;;;;;;;;;16.90;99.90;;;;;;5007351;28;20311;-63
2022/05/26 04:56:23;;;;;;;;;;;17.70;99.90;;;;;;5004493;28;19925;-62
2022/05/26 04:58:52;;;;;;;;;;;19.00;99.90;;;;;;5004244;28;19980;-62
2022/05/26 05:01:20;;;;;;;;;;;20.20;99.90;;;;;;4997448;28;19936;-61
2022/05/26 05:03:47;;;;;;;;;;;21.50;99.90;;;;;;5005713;28;19925;-60
2022/05/26 05:06:15;;;;;;;;;;;22.00;99.90;;;;;;5006606;28;19972;-61
2022/05/26 05:08:42;;;;;;;;;;;21.30;99.90;;;;;;5007113;28;19947;-62
2022/05/26 05:11:09;;;;;;;;;;;20.10;99.90;;;;;;5007555;28;20321;-62
2022/05/26 05:13:37;;;;;;;;;;;18.90;99.90;;;;;;5004618;28;19964;-63
2022/05/26 05:16:14;;;;;;;;;;;18.00;99.90;;;;;;5013568;28;19929;-63
2022/05/26 05:18:41;;;;;;;;;;;17.30;99.90;;;;;;5006696;28;19929;-62
2022/05/26 05:21:10;;;;;;;;;;;16.60;99.90;;;;;;5007934;28;19933;-62
2022/05/26 05:23:41;;;;;;;;;;;16.20;99.90;;;;;;5009866;28;19929;-62
2022/05/26 05:26:10;;;;;;;;;;;15.80;99.90;;;;;;5008413;28;19925;-62
2022/05/26 05:28:39;;;;;;;;;;;15.60;99.90;;;;;;5010991;28;19929;-63
2022/05/26 05:31:14;;;;;;;;;;;15.80;99.90;;;;;;5012155;28;19926;-63
2022/05/26 05:33:44;;;;;;;;;;;16.60;99.90;;;;;;5008337;28;19976;-64
2022/05/26 05:36:13;;;;;;;;;;;18.30;99.90;;;;;;5004303;28;19926;-63
2022/05/26 05:38:43;;;;;;;;;;;20.00;99.90;;;;;;5011459;28;19953;-64
2022/05/26 05:41:10;;;;;;;;;;;21.10;99.90;;;;;;5004275;28;19930;-63
2022/05/26 05:43:40;;;;;;;;;;;21.70;99.90;;;;;;5004496;28;20475;-63
2022/05/26 05:46:08;;;;;;;;;;;22.50;99.90;;;;;;5003403;28;20008;-62
2022/05/26 05:48:35;;;;;;;;;;;23.30;99.90;;;;;;5010527;28;20274;-64
2022/05/26 05:51:02;;;;;;;;;;;24.20;99.90;;;;;;5023864;28;19935;-63
2022/05/26 05:53:28;;;;;;;;;;;24.10;99.90;;;;;;5007179;28;19936;-64
2022/05/26 05:55:55;;;;;;;;;;;23.10;99.90;;;;;;5004591;28;19932;-63
2022/05/26 05:58:22;;;;;;;;;;;22.40;99.90;;;;;;5005815;28;20036;-62
2022/05/26 06:00:48;;;;;;;;;;;21.70;99.90;;;;;;5005749;28;19929;-63
2022/05/26 06:03:15;;;;;;;;;;;20.70;99.90;;;;;;5004027;28;19926;-63
2022/05/26 06:05:45;;;;;;;;;;;19.90;99.90;;;;;;5008914;28;19926;-62
2022/05/26 06:08:11;;;;;;;;;;;19.50;99.90;;;;;;5005862;28;19929;-62
2022/05/26 06:10:41;;;;;;;;;;;19.40;99.90;;;;;;5008825;28;19929;-63
2022/05/26 06:13:08;;;;;;;;;;;19.40;99.90;;;;;;5005637;28;20029;-62
2022/05/26 06:15:34;;;;;;;;;;;19.60;99.90;;;;;;5007763;28;19929;-62
2022/05/26 06:18:06;;;;;;;;;;;20.50;99.90;;;;;;5008655;28;19926;-63
2022/05/26 06:20:32;;;;;;;;;;;21.30;99.90;;;;;;5011244;28;20016;-63
2022/05/26 06:23:00;;;;;;;;;;;21.80;99.90;;;;;;5006247;28;19930;-64
2022/05/26 06:25:27;;;;;;;;;;;21.40;99.90;;;;;;5013386;28;19929;-62
2022/05/26 06:30:38;;;;;;;;;;;21.10;99.90;;;;;;5009621;28;20394;-63
2022/05/26 06:38:37;;;;;;;;;;;19.80;99.90;;;;;;5009548;28;19925;-62
2022/05/26 06:43:52;;;;;;;;;;;19.20;99.90;;;;;;5002297;28;19932;-62
2022/05/26 06:46:18;;;;;;;;;;;18.90;99.90;;;;;;5004999;28;20369;-62
2022/05/26 06:48:45;;;;;;;;;;;18.80;99.90;;;;;;5002744;28;20020;-63
2022/05/26 06:51:12;;;;;;;;;;;18.80;99.90;;;;;;5006634;28;20020;-63
2022/05/26 06:53:39;;;;;;;;;;;19.10;99.90;;;;;;5006224;28;20300;-63
2022/05/26 06:56:06;;;;;;;;;;;19.20;99.90;;;;;;5007834;28;19930;-64
2022/05/26 06:58:32;;;;;;;;;;;19.40;99.90;;;;;;5003988;28;20582;-64
2022/05/26 07:00:59;;;;;;;;;;;19.60;99.90;;;;;;5009722;28;20389;-63
2022/05/26 07:03:27;;;;;;;;;;;19.80;99.90;;;;;;5003200;28;20422;-63
2022/05/26 07:05:53;;;;;;;;;;;20.00;99.90;;;;;;5005790;28;19926;-64
2022/05/26 07:08:21;;;;;;;;;;;20.20;99.90;;;;;;5010762;28;20020;-62
2022/05/26 07:10:50;;;;;;;;;;;20.40;99.90;;;;;;5000581;28;19933;-63
2022/05/26 07:13:17;;;;;;;;;;;20.50;99.90;;;;;;5000242;28;20120;-61
2022/05/26 07:15:44;;;;;;;;;;;20.50;99.90;;;;;;5000851;28;19932;-63
2022/05/26 07:18:10;;;;;;;;;;;20.60;99.90;;;;;;4997234;28;20028;-63
2022/05/26 07:20:38;;;;;;;;;;;20.70;99.90;;;;;;5006514;28;19941;-62
2022/05/26 07:23:08;;;;;;;;;;;20.90;99.90;;;;;;5005164;28;19979;-62
2022/05/26 07:25:38;;;;;;;;;;;21.00;99.90;;;;;;5008141;28;19969;-61
2022/05/26 07:28:05;;;;;;;;;;;21.10;99.90;;;;;;5005099;28;19926;-63
2022/05/26 07:30:31;;;;;;;;;;;21.70;99.90;;;;;;5000695;28;19933;-61
2022/05/26 07:33:01;;;;;;;;;;;22.00;99.90;;;;;;5005330;28;20036;-63
2022/05/26 07:35:28;;;;;;;;;;;22.60;99.90;;;;;;5008752;28;20016;-62
2022/05/26 07:43:27;;;;;;;;;;;23.00;99.90;;;;;;5008658;28;19925;-62
2022/05/26 07:45:54;;;;;;;;;;;22.80;99.90;;;;;;5003190;28;19940;-61
2022/05/26 07:48:20;;;;;;;;;;;22.80;99.90;;;;;;4994504;28;19929;-68
2022/05/26 07:50:50;;;;;;;;;;;22.60;99.90;;;;;;5004100;28;19925;-62
2022/05/26 07:53:17;;;;;;;;;;;22.30;99.90;;;;;;5007025;28;19935;-61
2022/05/26 07:55:46;;;;;;;;;;;22.20;99.90;;;;;;5002012;28;20689;-61
2022/05/26 07:58:12;;;;;;;;;;;22.50;99.90;;;;;;5006019;28;19926;-63
2022/05/26 08:00:40;;;;;;;;;;;23.10;99.90;;;;;;5002539;28;19926;-62
2022/05/26 08:03:09;;;;;;;;;;;23.50;99.90;;;;;;5009625;28;20568;-62
2022/05/26 08:05:37;;;;;;;;;;;23.90;99.90;;;;;;5003476;28;19925;-62
2022/05/26 08:08:04;;;;;;;;;;;23.90;99.90;;;;;;5003450;28;19925;-63
2022/05/26 08:10:30;;;;;;;;;;;24.30;99.90;;;;;;4999760;28;19925;-62
2022/05/26 08:12:57;;;;;;;;;;;24.70;99.90;;;;;;5005642;28;20348;-62
2022/05/26 08:15:27;;;;;;;;;;;25.00;99.90;;;;;;5007866;28;20004;-62
2022/05/26 08:17:57;;;;;;;;;;;25.60;99.90;;;;;;5006490;28;20024;-62
2022/05/26 08:20:24;;;;;;;;;;;26.10;99.90;;;;;;5006499;28;19968;-61
2022/05/26 08:22:51;;;;;;;;;;;26.10;99.90;;;;;;5003691;28;20324;-61
2022/05/26 08:25:17;;;;;;;;;;;25.60;99.90;;;;;;5007434;28;20004;-62
2022/05/26 08:27:47;;;;;;;;;;;25.30;99.90;;;;;;5008111;28;19932;-62
2022/05/26 08:30:14;;;;;;;;;;;25.20;99.90;;;;;;4997179;28;19925;-62
2022/05/26 08:32:41;;;;;;;;;;;25.40;99.90;;;;;;4996541;28;20052;-61
2022/05/26 08:35:08;;;;;;;;;;;25.60;99.90;;;;;;4998539;28;19929;-61
2022/05/26 08:37:35;;;;;;;;;;;25.20;99.90;;;;;;5007755;28;19929;-62
2022/05/26 08:40:03;;;;;;;;;;;24.70;99.90;;;;;;5009355;28;19984;-62
2022/05/26 08:42:34;;;;;;;;;;;25.30;99.90;;;;;;5011241;28;19936;-62
2022/05/26 08:45:06;;;;;;;;;;;25.20;99.90;;;;;;5004089;28;19929;-61
2022/05/26 08:47:40;;;;;;;;;;;24.80;99.90;;;;;;5003889;28;19932;-61
2022/05/26 08:50:10;;;;;;;;;;;24.30;99.90;;;;;;5000736;28;19933;-62
2022/05/26 08:52:37;;;;;;;;;;;24.10;99.90;;;;;;5003636;28;19925;-62
2022/05/26 08:55:11;;;;;;;;;;;24.30;99.90;;;;;;5005485;28;20565;-62
2022/05/26 08:57:53;;;;;;;;;;;24.30;99.90;;;;;;5007543;28;19961;-61
2022/05/26 09:00:21;;;;;;;;;;;24.30;99.90;;;;;;5000267;28;19936;-61
2022/05/26 09:02:53;;;;;;;;;;;24.40;99.90;;;;;;5007882;28;19925;-63
2022/05/26 09:05:20;;;;;;;;;;;24.30;99.90;;;;;;5007970;28;20403;-65
2022/05/26 09:14:02;;;;;;;;;;;24.60;99.90;;;;;;5011081;28;19930;-66
2022/05/26 09:16:31;;;;;;;;;;;25.20;99.90;;;;;;5015586;28;19949;-64
2022/05/26 09:19:12;;;;;;;;;;;25.50;99.90;;;;;;5005928;28;19931;-63
2022/05/26 09:21:40;;;;;;;;;;;25.60;99.90;;;;;;5011454;28;19925;-67
2022/05/26 09:24:19;;;;;;;;;;;25.60;99.90;;;;;;5002854;28;19925;-67
2022/05/26 09:26:52;;;;;;;;;;;25.50;99.10;;;;;;5002669;28;19930;-66
2022/05/26 09:29:22;;;;;;;;;;;25.70;99.60;;;;;;5002786;28;19932;-65
2022/05/26 09:31:49;;;;;;;;;;;25.90;99.60;;;;;;5005762;28;20029;-65
2022/05/26 09:34:19;;;;;;;;;;;25.60;99.20;;;;;;5000853;28;19961;-64
2022/05/26 09:36:48;;;;;;;;;;;25.60;99.60;;;;;;5012503;28;19930;-65
2022/05/26 09:39:24;;;;;;;;;;;25.40;99.80;;;;;;5000887;28;19929;-65
2022/05/26 09:41:53;;;;;;;;;;;25.40;99.50;;;;;;5010806;28;20032;-66
2022/05/26 09:44:24;;;;;;;;;;;25.30;99.50;;;;;;5003330;28;19929;-66
2022/05/26 09:46:52;;;;;;;;;;;25.40;98.60;;;;;;5008637;28;19933;-66
2022/05/26 09:49:25;;;;;;;;;;;25.80;99.10;;;;;;4999738;28;19926;-67
2022/05/26 09:52:02;;;;;;;;;;;26.00;99.00;;;;;;5000766;28;20366;-62
2022/05/26 09:54:31;;;;;;;;;;;26.50;97.50;;;;;;5008386;28;19963;-65
2022/05/26 09:57:10;;;;;;;;;;;26.50;98.10;;;;;;5007289;28;19956;-65
2022/05/26 09:59:39;;;;;;;;;;;26.60;98.40;;;;;;5005618;28;19932;-65
2022/05/26 10:02:11;;;;;;;;;;;26.60;98.50;;;;;;5012617;28;20277;-65
2022/05/26 10:04:50;;;;;;;;;;;27.70;98.20;;;;;;5012297;28;20408;-64
2022/05/26 10:07:19;;;;;;;;;;;28.70;96.50;;;;;;5006188;28;19926;-61
2022/05/26 10:10:07;;;;;;;;;;;27.70;95.80;;;;;;5006899;28;20742;-64
2022/05/26 10:12:39;;;;;;;;;;;27.70;96.60;;;;;;4999627;28;19925;-66
2022/05/26 10:15:06;;;;;;;;;;;27.40;96.00;;;;;;5008392;28;19926;-62
2022/05/26 10:17:32;;;;;;;;;;;26.70;96.60;;;;;;5005541;28;20508;-64
2022/05/26 10:20:24;;;;;;;;;;;26.40;96.40;;;;;;5005478;28;19948;-64
2022/05/26 10:22:51;;;;;;;;;;;26.50;97.70;;;;;;5010453;28;19925;-61
2022/05/26 10:25:37;;;;;;;;;;;26.40;96.90;;;;;;5010281;28;19948;-64
2022/05/26 10:28:16;;;;;;;;;;;25.90;97.00;;;;;;5003513;28;20274;-63
2022/05/26 10:30:48;;;;;;;;;;;25.20;96.20;;;;;;5035895;28;19934;-64
2022/05/26 10:33:36;;;;;;;;;;;24.80;95.90;;;;;;5006557;28;20404;-63
2022/05/26 10:36:15;;;;;;;;;;;24.60;96.20;;;;;;5001143;28;19932;-66
2022/05/26 10:38:45;;;;;;;;;;;24.60;96.10;;;;;;5003667;28;19936;-66
2022/05/26 10:41:28;;;;;;;;;;;24.30;97.00;;;;;;5008343;28;19929;-65
2022/05/26 10:44:10;;;;;;;;;;;24.20;97.60;;;;;;5003079;28;20644;-66
2022/05/26 10:46:40;;;;;;;;;;;24.20;98.10;;;;;;5008393;28;19925;-64
2022/05/26 10:49:12;;;;;;;;;;;24.10;96.70;;;;;;5003853;28;20334;-65
2022/05/26 10:51:44;;;;;;;;;;;23.90;96.20;;;;;;5004151;28;19935;-65
2022/05/26 10:54:15;;;;;;;;;;;23.80;96.60;;;;;;5010871;28;19933;-63
2022/05/26 10:56:46;;;;;;;;;;;23.70;96.70;;;;;;5004416;28;19940;-66
2022/05/26 10:59:20;;;;;;;;;;;24.00;96.60;;;;;;5007323;28;19932;-68
2022/05/26 11:01:52;;;;;;;;;;;24.20;95.70;;;;;;5007298;28;20645;-66
2022/05/26 11:04:22;;;;;;;;;;;24.60;95.50;;;;;;5006967;28;20298;-66
2022/05/26 11:06:51;;;;;;;;;;;24.60;95.50;;;;;;5009587;28;19925;-68
2022/05/26 11:09:26;;;;;;;;;;;24.60;95.50;;;;;;5007295;28;19933;-64
2022/05/26 11:11:58;;;;;;;;;;;24.20;96.10;;;;;;5007376;28;19929;-67
2022/05/26 11:17:33;;;;;;;;;;;24.50;96.90;;;;;;5009316;28;20027;-67
2022/05/26 11:20:02;;;;;;;;;;;25.30;95.60;;;;;;5014910;28;19934;-65
2022/05/26 11:22:30;;;;;;;;;;;25.70;96.20;;;;;;5008095;28;19929;-64
2022/05/26 11:24:58;;;;;;;;;;;26.50;96.00;;;;;;5008756;28;20414;-64
2022/05/26 11:27:25;;;;;;;;;;;26.80;94.50;;;;;;5009868;28;19926;-66
2022/05/26 11:29:58;;;;;;;;;;;26.60;94.60;;;;;;5004876;28;20012;-66
2022/05/26 11:38:02;;;;;;;;;;;26.70;94.20;;;;;;5000350;28;19932;-63
2022/05/26 11:40:31;;;;;;;;;;;27.40;93.90;;;;;;5001502;28;20443;-65
2022/05/26 11:42:58;;;;;;;;;;;27.30;94.10;;;;;;5002784;28;19933;-65
2022/05/26 11:45:33;;;;;;;;;;;26.80;93.90;;;;;;5002146;28;20381;-68
2022/05/26 11:48:02;;;;;;;;;;;26.30;94.70;;;;;;5000161;28;19932;-67
2022/05/26 11:50:48;;;;;;;;;;;26.10;94.50;;;;;;5007389;28;20412;-65
2022/05/26 11:53:27;;;;;;;;;;;26.70;94.60;;;;;;5008359;28;20024;-67
2022/05/26 11:55:55;;;;;;;;;;;26.80;95.20;;;;;;5008983;28;19925;-67
2022/05/26 11:58:36;;;;;;;;;;;26.70;93.70;;;;;;5007216;28;20117;-65
2022/05/26 12:01:22;;;;;;;;;;;27.10;93.20;;;;;;5004491;28;19965;-65
2022/05/26 12:03:49;;;;;;;;;;;27.30;93.10;;;;;;5004130;28;20028;-66
2022/05/26 12:06:16;;;;;;;;;;;27.80;93.80;;;;;;5010066;28;19952;-65
2022/05/26 12:08:43;;;;;;;;;;;27.70;93.00;;;;;;5001895;28;19931;-67
2022/05/26 12:11:11;;;;;;;;;;;26.70;93.60;;;;;;5005875;28;19926;-65
2022/05/26 12:13:39;;;;;;;;;;;25.80;94.40;;;;;;5007268;28;20020;-64
2022/05/26 12:16:15;;;;;;;;;;;25.30;94.70;;;;;;5010452;28;20012;-66
2022/05/26 12:18:41;;;;;;;;;;;25.10;94.80;;;;;;5003846;28;19929;-65
2022/05/26 12:21:34;;;;;;;;;;;24.70;95.10;;;;;;5002617;28;19935;-66
2022/05/26 12:24:23;;;;;;;;;;;24.90;95.90;;;;;;5002822;28;19925;-66
2022/05/26 12:26:55;;;;;;;;;;;25.60;95.70;;;;;;5003679;28;19929;-66
2022/05/26 12:29:40;;;;;;;;;;;26.50;95.50;;;;;;5000760;28;20676;-66
2022/05/26 12:32:17;;;;;;;;;;;26.90;95.00;;;;;;4998847;28;20571;-67
2022/05/26 12:34:51;;;;;;;;;;;26.70;94.50;;;;;;5002241;28;19929;-66
2022/05/26 12:37:39;;;;;;;;;;;26.30;95.50;;;;;;5000896;28;20332;-66
2022/05/26 12:40:25;;;;;;;;;;;27.00;94.30;;;;;;5004890;28;19932;-66
2022/05/26 12:43:07;;;;;;;;;;;27.50;93.90;;;;;;5003511;28;19940;-65
2022/05/26 12:45:53;;;;;;;;;;;28.50;93.20;;;;;;5010527;28;19977;-65
2022/05/26 12:48:38;;;;;;;;;;;29.00;92.10;;;;;;5005556;28;19925;-67
2022/05/26 12:51:08;;;;;;;;;;;29.40;92.70;;;;;;5005477;28;20125;-68
2022/05/26 12:53:36;;;;;;;;;;;29.20;91.60;;;;;;5010502;28;20378;-66
2022/05/26 12:56:06;;;;;;;;;;;28.90;92.10;;;;;;5005853;28;19933;-68
2022/05/26 12:58:43;;;;;;;;;;;28.90;92.80;;;;;;5003622;28;20023;-68
2022/05/26 13:01:12;;;;;;;;;;;29.00;91.60;;;;;;5009103;28;19925;-65
2022/05/26 13:03:40;;;;;;;;;;;29.30;91.40;;;;;;5008456;28;19926;-66
2022/05/26 13:06:12;;;;;;;;;;;29.50;91.80;;;;;;5008024;28;20415;-68
2022/05/26 13:08:54;;;;;;;;;;;29.30;91.40;;;;;;4992875;28;19925;-64
2022/05/26 13:11:23;;;;;;;;;;;29.10;91.20;;;;;;5014240;28;19931;-66
2022/05/26 13:13:57;;;;;;;;;;;28.60;91.40;;;;;;5004289;28;19932;-66
2022/05/26 13:16:34;;;;;;;;;;;28.40;92.00;;;;;;5015016;28;19929;-69
2022/05/26 13:19:07;;;;;;;;;;;28.30;92.30;;;;;;5009208;28;19925;-66
2022/05/26 13:21:34;;;;;;;;;;;28.10;93.00;;;;;;5007471;28;19934;-66
2022/05/26 13:24:01;;;;;;;;;;;27.80;93.00;;;;;;5000945;28;20414;-64
2022/05/26 13:26:27;;;;;;;;;;;27.90;93.10;;;;;;5004850;28;19971;-67
2022/05/26 13:28:56;;;;;;;;;;;28.10;93.40;;;;;;5016000;28;20020;-68
2022/05/26 13:34:10;;;;;;;;;;;28.60;92.10;;;;;;5001680;28;19932;-68
2022/05/26 13:36:44;;;;;;;;;;;28.30;92.10;;;;;;5003129;28;19928;-67
2022/05/26 13:39:13;;;;;;;;;;;28.20;92.20;;;;;;5007533;28;19930;-67
2022/05/26 13:41:43;;;;;;;;;;;27.30;92.40;;;;;;5004699;28;20292;-68
2022/05/26 13:44:13;;;;;;;;;;;26.60;92.70;;;;;;5004429;28;19955;-65
2022/05/26 13:46:39;;;;;;;;;;;25.50;93.20;;;;;;5009288;28;19925;-67
2022/05/26 13:49:25;;;;;;;;;;;25.30;94.20;;;;;;5011231;28;20388;-68
2022/05/26 13:51:53;;;;;;;;;;;25.50;93.30;;;;;;5016415;28;20024;-66
2022/05/26 13:54:19;;;;;;;;;;;26.60;92.90;;;;;;5007338;28;19933;-67
2022/05/26 13:56:49;;;;;;;;;;;28.00;92.40;;;;;;5005483;28;20506;-65
2022/05/26 13:59:16;;;;;;;;;;;29.30;92.10;;;;;;5007673;28;20377;-67
2022/05/26 14:01:51;;;;;;;;;;;30.10;90.60;;;;;;5010402;28;20592;-67
2022/05/26 14:04:20;;;;;;;;;;;30.20;90.20;;;;;;5003978;28;19929;-67
2022/05/26 14:06:47;;;;;;;;;;;30.20;90.60;;;;;;5003160;28;19931;-66
2022/05/26 14:09:42;;;;;;;;;;;30.20;89.50;;;;;;5006848;28;19925;-67
2022/05/26 14:12:22;;;;;;;;;;;29.50;90.20;;;;;;4986723;28;19932;-66
2022/05/26 14:14:49;;;;;;;;;;;28.50;90.60;;;;;;4988133;28;20428;-69
2022/05/26 14:17:36;;;;;;;;;;;27.30;91.90;;;;;;4987066;28;20013;-66
2022/05/26 14:20:10;;;;;;;;;;;26.80;92.40;;;;;;4984650;28;20468;-67
2022/05/26 14:22:37;;;;;;;;;;;26.80;93.00;;;;;;4987248;28;19926;-67
2022/05/26 14:25:04;;;;;;;;;;;27.30;93.40;;;;;;4987744;28;19968;-68
2022/05/26 14:27:49;;;;;;;;;;;27.60;92.60;;;;;;4994078;28;19971;-66
2022/05/26 14:30:48;;;;;;;;;;;27.50;92.30;;;;;;4970088;28;20021;-65
2022/05/26 14:33:21;;;;;;;;;;;27.50;92.10;;;;;;4954550;28;20551;-66
2022/05/26 14:35:48;;;;;;;;;;;27.40;92.40;;;;;;4985293;28;19925;-66
2022/05/26 14:38:15;;;;;;;;;;;28.20;92.10;;;;;;4988105;28;19932;-68
2022/05/26 14:40:43;;;;;;;;;;;29.30;91.20;;;;;;4988043;28;20588;-64
2022/05/26 14:43:18;;;;;;;;;;;30.40;90.50;;;;;;4971299;28;19926;-68
2022/05/26 14:45:45;;;;;;;;;;;30.00;90.30;;;;;;4986755;28;20589;-69
2022/05/26 14:48:12;;;;;;;;;;;30.00;90.50;;;;;;4989396;28;19932;-67
2022/05/26 14:50:39;;;;;;;;;;;29.80;90.30;;;;;;5005776;28;20020;-70
2022/05/26 14:53:07;;;;;;;;;;;28.80;91.20;;;;;;5008364;28;20292;-67
2022/05/26 14:55:37;;;;;;;;;;;28.10;91.60;;;;;;5018259;28;19992;-70
2022/05/26 14:58:15;;;;;;;;;;;27.40;92.00;;;;;;5005990;28;20395;-70
2022/05/26 15:00:43;;;;;;;;;;;27.00;92.50;;;;;;5006012;28;19929;-69
2022/05/26 15:03:10;;;;;;;;;;;26.80;92.90;;;;;;5003196;28;20509;-70
2022/05/26 15:05:38;;;;;;;;;;;26.70;93.10;;;;;;5002642;28;19930;-68
2022/05/26 15:08:14;;;;;;;;;;;26.80;93.50;;;;;;5005023;28;19932;-70
2022/05/26 15:10:41;;;;;;;;;;;27.00;93.20;;;;;;5001683;28;19932;-68
2022/05/26 15:13:08;;;;;;;;;;;27.30;92.50;;;;;;4998893;28;19929;-70
2022/05/26 15:15:36;;;;;;;;;;;27.00;92.70;;;;;;5035194;28;20391;-69
2022/05/26 15:18:06;;;;;;;;;;;26.40;93.00;;;;;;5006978;28;19949;-68
2022/05/26 15:20:33;;;;;;;;;;;26.00;93.10;;;;;;5007788;28;19929;-70
2022/05/26 15:22:59;;;;;;;;;;;25.60;93.60;;;;;;5002122;28;19932;-70